createdAt,value
2023-04-30T00:00:59.485Z,7.40
2023-04-30T00:01:59.487Z,7.00
2023-04-30T00:02:59.500Z,6.90
2023-04-30T00:03:59.494Z,7.30
2023-04-30T00:04:59.382Z,7.60
2023-04-30T00:05:59.395Z,7.40
2023-04-30T00:06:59.326Z,7.90
2023-04-30T00:07:59.316Z,7.40
2023-04-30T00:08:59.274Z,6.70
2023-04-30T00:09:59.247Z,7.40
2023-04-30T00:10:59.226Z,7.40
2023-04-30T00:11:59.212Z,7.20
2023-04-30T00:12:59.176Z,7.70
2023-04-30T00:13:59.149Z,7.00
2023-04-30T00:14:59.116Z,7.20
2023-04-30T00:15:59.124Z,7.60
2023-04-30T00:16:59.085Z,7.70
2023-04-30T00:17:59.085Z,7.30
2023-04-30T00:18:59.008Z,7.30
2023-04-30T00:19:58.986Z,7.90
2023-04-30T00:20:58.957Z,7.30
2023-04-30T00:21:58.950Z,7.70
2023-04-30T00:22:58.904Z,7.40
2023-04-30T00:23:58.879Z,7.10
2023-04-30T00:24:58.852Z,7.40
2023-04-30T00:25:58.829Z,7.60
2023-04-30T00:26:58.798Z,7.80
2023-04-30T00:27:58.872Z,7.20
2023-04-30T00:28:58.747Z,7.80
2023-04-30T00:29:58.727Z,7.60
2023-04-30T00:30:58.690Z,7.70
2023-04-30T00:31:58.747Z,7.70
2023-04-30T00:32:58.692Z,7.60
2023-04-30T00:33:58.613Z,7.80
2023-04-30T00:34:58.583Z,7.30
2023-04-30T00:35:58.560Z,7.90
2023-04-30T00:36:58.529Z,7.70
2023-04-30T00:37:58.511Z,7.50
2023-04-30T00:38:58.477Z,7.90
2023-04-30T00:39:58.450Z,7.40
2023-04-30T00:40:58.423Z,7.80
2023-04-30T00:41:58.396Z,7.90
2023-04-30T00:42:58.371Z,8.00
2023-04-30T00:43:58.365Z,8.00
2023-04-30T00:44:58.314Z,7.80
2023-04-30T00:45:58.312Z,8.10
2023-04-30T00:46:58.263Z,8.30
2023-04-30T00:47:58.269Z,7.80
2023-04-30T00:48:58.221Z,7.80
2023-04-30T00:49:58.185Z,7.80
2023-04-30T00:50:58.157Z,8.00
2023-04-30T00:51:58.133Z,7.50
2023-04-30T00:52:58.103Z,8.10
2023-04-30T00:53:58.076Z,8.40
2023-04-30T00:54:58.053Z,8.40
2023-04-30T00:55:58.020Z,7.70
2023-04-30T00:56:57.994Z,8.10
2023-04-30T00:57:57.968Z,8.20
2023-04-30T00:58:57.963Z,7.80
2023-04-30T00:59:57.930Z,8.30
2023-04-30T01:00:57.920Z,8.00
2023-04-30T01:01:57.863Z,7.90
2023-04-30T01:02:57.917Z,8.10
2023-04-30T01:03:57.826Z,8.00
2023-04-30T01:04:57.787Z,7.90
2023-04-30T01:05:57.792Z,8.00
2023-04-30T01:06:57.725Z,7.60
2023-04-30T01:07:57.701Z,8.10
2023-04-30T01:08:57.669Z,8.20
2023-04-30T01:09:57.652Z,8.20
2023-04-30T01:10:57.626Z,7.80
2023-04-30T01:11:57.588Z,7.90
2023-04-30T01:12:57.566Z,8.10
2023-04-30T01:13:57.543Z,8.40
2023-04-30T01:14:57.509Z,7.90
2023-04-30T01:15:57.620Z,7.80
2023-04-30T01:16:57.455Z,8.40
2023-04-30T01:17:57.546Z,8.60
2023-04-30T01:18:57.484Z,7.60
2023-04-30T01:19:57.374Z,8.00
2023-04-30T01:20:57.348Z,8.20
2023-04-30T01:21:57.317Z,8.00
2023-04-30T01:22:57.294Z,8.20
2023-04-30T01:23:57.275Z,7.80
2023-04-30T01:24:57.321Z,8.10
2023-04-30T01:25:57.212Z,7.70
2023-04-30T01:26:57.188Z,8.00
2023-04-30T01:27:57.170Z,7.80
2023-04-30T01:28:57.133Z,8.10
2023-04-30T01:29:57.112Z,7.70
2023-04-30T01:30:57.129Z,8.00
2023-04-30T01:31:57.069Z,8.00
2023-04-30T01:32:57.036Z,7.80
2023-04-30T01:33:57.001Z,8.00
2023-04-30T01:34:56.973Z,7.90
2023-04-30T01:35:56.953Z,8.20
2023-04-30T01:36:56.917Z,7.80
2023-04-30T01:37:56.899Z,7.80
2023-04-30T01:38:56.864Z,7.80
2023-04-30T01:39:57.190Z,7.40
2023-04-30T01:40:56.810Z,7.50
2023-04-30T01:41:56.784Z,7.60
2023-04-30T01:42:56.756Z,8.10
2023-04-30T01:43:56.730Z,8.00
2023-04-30T01:44:56.703Z,7.90
2023-04-30T01:45:56.702Z,8.30
2023-04-30T01:46:56.650Z,7.90
2023-04-30T01:47:56.699Z,8.00
2023-04-30T01:48:56.610Z,7.20
2023-04-30T01:49:56.834Z,7.30
2023-04-30T01:50:56.550Z,8.20
2023-04-30T01:51:56.522Z,7.60
2023-04-30T01:52:56.492Z,7.50
2023-04-30T01:53:56.460Z,8.10
2023-04-30T01:54:56.453Z,7.80
2023-04-30T01:55:56.450Z,7.80
2023-04-30T01:56:56.380Z,7.60
2023-04-30T01:57:56.354Z,7.80
2023-04-30T01:58:56.327Z,8.20
2023-04-30T01:59:56.599Z,7.60
2023-04-30T02:00:56.276Z,7.70
2023-04-30T02:01:56.376Z,8.10
2023-04-30T02:02:56.271Z,7.60
2023-04-30T02:03:56.297Z,7.80
2023-04-30T02:04:56.163Z,7.90
2023-04-30T02:05:56.157Z,8.00
2023-04-30T02:06:56.109Z,8.00
2023-04-30T02:07:56.083Z,7.50
2023-04-30T02:08:56.059Z,7.90
2023-04-30T02:09:56.154Z,7.40
2023-04-30T02:10:56.001Z,8.20
2023-04-30T02:11:55.974Z,8.20
2023-04-30T02:12:55.952Z,7.90
2023-04-30T02:13:55.925Z,7.70
2023-04-30T02:14:55.891Z,8.60
2023-04-30T02:15:55.887Z,7.70
2023-04-30T02:16:55.838Z,7.80
2023-04-30T02:17:55.890Z,7.40
2023-04-30T02:18:55.790Z,8.30
2023-04-30T02:19:56.041Z,8.30
2023-04-30T02:20:55.735Z,7.50
2023-04-30T02:21:55.736Z,7.80
2023-04-30T02:22:55.674Z,7.60
2023-04-30T02:23:55.643Z,8.00
2023-04-30T02:24:55.659Z,7.50
2023-04-30T02:25:55.590Z,7.60
2023-04-30T02:26:55.568Z,7.60
2023-04-30T02:27:55.535Z,8.10
2023-04-30T02:28:55.509Z,7.40
2023-04-30T02:29:55.776Z,7.40
2023-04-30T02:30:55.453Z,7.50
2023-04-30T02:31:55.550Z,7.70
2023-04-30T02:32:55.450Z,7.80
2023-04-30T02:33:55.374Z,7.30
2023-04-30T02:34:55.343Z,7.10
2023-04-30T02:35:55.353Z,7.60
2023-04-30T02:36:55.292Z,7.40
2023-04-30T02:37:55.264Z,7.40
2023-04-30T02:38:55.238Z,7.50
2023-04-30T02:39:55.505Z,7.50
2023-04-30T02:40:55.187Z,7.00
2023-04-30T02:41:55.168Z,6.70
2023-04-30T02:42:55.129Z,7.80
2023-04-30T02:43:55.096Z,7.20
2023-04-30T02:44:55.086Z,7.30
2023-04-30T02:45:55.080Z,7.80
2023-04-30T02:46:55.019Z,7.80
2023-04-30T02:47:55.002Z,7.60
2023-04-30T02:48:54.964Z,8.00
2023-04-30T02:49:55.206Z,7.00
2023-04-30T02:50:54.911Z,7.30
2023-04-30T02:51:54.901Z,7.20
2023-04-30T02:52:54.855Z,7.00
2023-04-30T02:53:54.827Z,7.40
2023-04-30T02:54:54.802Z,7.60
2023-04-30T02:55:54.771Z,7.40
2023-04-30T02:56:54.745Z,7.20
2023-04-30T02:57:54.723Z,7.70
2023-04-30T02:58:54.710Z,7.40
2023-04-30T02:59:54.944Z,7.10
2023-04-30T03:00:54.699Z,7.00
2023-04-30T03:01:54.612Z,7.80
2023-04-30T03:02:54.683Z,7.00
2023-04-30T03:03:54.555Z,7.00
2023-04-30T03:04:54.544Z,7.70
2023-04-30T03:05:54.534Z,7.20
2023-04-30T03:06:54.475Z,7.30
2023-04-30T03:07:54.462Z,7.60
2023-04-30T03:08:54.420Z,7.00
2023-04-30T03:09:54.532Z,7.00
2023-04-30T03:10:54.369Z,6.80
2023-04-30T03:11:54.339Z,7.30
2023-04-30T03:12:54.316Z,7.40
2023-04-30T03:13:54.287Z,7.20
2023-04-30T03:14:54.254Z,7.10
2023-04-30T03:15:54.254Z,7.60
2023-04-30T03:16:54.208Z,7.20
2023-04-30T03:17:54.202Z,7.20
2023-04-30T03:18:54.151Z,7.20
2023-04-30T03:19:54.472Z,6.90
2023-04-30T03:20:54.095Z,6.50
2023-04-30T03:21:55.201Z,7.00
2023-04-30T03:22:54.048Z,6.80
2023-04-30T03:23:54.038Z,6.90
2023-04-30T03:24:53.996Z,7.00
2023-04-30T03:25:53.972Z,6.90
2023-04-30T03:26:53.938Z,7.20
2023-04-30T03:27:53.919Z,7.30
2023-04-30T03:28:53.891Z,7.00
2023-04-30T03:29:54.177Z,6.60
2023-04-30T03:30:53.835Z,7.20
2023-04-30T03:31:53.887Z,6.60
2023-04-30T03:32:53.804Z,6.60
2023-04-30T03:33:53.815Z,7.20
2023-04-30T03:34:53.723Z,7.20
2023-04-30T03:35:53.696Z,6.80
2023-04-30T03:36:53.679Z,7.00
2023-04-30T03:37:53.643Z,7.30
2023-04-30T03:38:53.620Z,7.30
2023-04-30T03:39:53.892Z,7.60
2023-04-30T03:40:53.576Z,7.20
2023-04-30T03:41:53.536Z,6.90
2023-04-30T03:42:53.511Z,7.20
2023-04-30T03:43:53.483Z,7.60
2023-04-30T03:44:53.458Z,7.80
2023-04-30T03:45:53.512Z,8.30
2023-04-30T03:46:53.402Z,8.00
2023-04-30T03:47:53.459Z,8.00
2023-04-30T03:48:53.348Z,7.80
2023-04-30T03:49:53.750Z,7.60
2023-04-30T03:50:53.301Z,7.60
2023-04-30T03:51:53.273Z,7.90
2023-04-30T03:52:53.250Z,6.90
2023-04-30T03:53:53.217Z,7.70
2023-04-30T03:54:53.189Z,7.10
2023-04-30T03:55:53.184Z,7.40
2023-04-30T03:56:53.137Z,7.40
2023-04-30T03:57:53.111Z,7.30
2023-04-30T03:58:53.086Z,7.20
2023-04-30T03:59:53.286Z,7.10
2023-04-30T04:00:53.033Z,6.70
2023-04-30T04:01:53.035Z,7.40
2023-04-30T04:02:52.990Z,7.20
2023-04-30T04:03:53.021Z,7.70
2023-04-30T04:04:52.924Z,7.50
2023-04-30T04:05:52.897Z,7.20
2023-04-30T04:06:52.868Z,6.90
2023-04-30T04:07:52.842Z,6.90
2023-04-30T04:08:52.819Z,6.90
2023-04-30T04:09:53.082Z,7.30
2023-04-30T04:10:52.761Z,7.50
2023-04-30T04:11:52.753Z,7.60
2023-04-30T04:12:52.708Z,6.90
2023-04-30T04:13:52.683Z,7.00
2023-04-30T04:14:52.655Z,6.70
2023-04-30T04:15:52.666Z,7.00
2023-04-30T04:16:52.601Z,7.10
2023-04-30T04:17:52.617Z,7.50
2023-04-30T04:18:52.550Z,7.40
2023-04-30T04:19:52.618Z,7.10
2023-04-30T04:20:52.498Z,7.40
2023-04-30T04:21:52.476Z,7.00
2023-04-30T04:22:52.441Z,7.20
2023-04-30T04:23:52.414Z,6.80
2023-04-30T04:24:52.387Z,7.50
2023-04-30T04:25:52.370Z,7.30
2023-04-30T04:26:52.331Z,7.50
2023-04-30T04:27:52.349Z,7.10
2023-04-30T04:28:52.279Z,7.40
2023-04-30T04:29:52.460Z,7.50
2023-04-30T04:30:52.234Z,7.60
2023-04-30T04:31:52.231Z,7.60
2023-04-30T04:32:52.221Z,7.80
2023-04-30T04:33:52.145Z,7.30
2023-04-30T04:34:52.114Z,7.50
2023-04-30T04:35:52.088Z,7.80
2023-04-30T04:36:52.063Z,7.10
2023-04-30T04:37:52.035Z,7.40
2023-04-30T04:38:52.008Z,8.40
2023-04-30T04:39:52.276Z,7.50
2023-04-30T04:40:51.956Z,7.40
2023-04-30T04:41:51.927Z,7.10
2023-04-30T04:42:51.903Z,7.40
2023-04-30T04:43:51.898Z,7.40
2023-04-30T04:44:51.846Z,7.30
2023-04-30T04:45:51.854Z,7.40
2023-04-30T04:46:51.815Z,7.90
2023-04-30T04:47:51.867Z,7.50
2023-04-30T04:48:51.737Z,7.30
2023-04-30T04:49:51.815Z,7.30
2023-04-30T04:50:51.693Z,7.70
2023-04-30T04:51:51.676Z,7.90
2023-04-30T04:52:51.626Z,7.60
2023-04-30T04:53:51.616Z,8.10
2023-04-30T04:54:51.588Z,7.80
2023-04-30T04:55:51.550Z,7.90
2023-04-30T04:56:51.547Z,7.60
2023-04-30T04:57:51.495Z,7.80
2023-04-30T04:58:51.466Z,7.50
2023-04-30T04:59:51.487Z,7.30
2023-04-30T05:00:51.435Z,7.40
2023-04-30T05:01:51.405Z,7.80
2023-04-30T05:02:51.436Z,7.90
2023-04-30T05:03:51.457Z,7.70
2023-04-30T05:04:51.310Z,7.40
2023-04-30T05:05:51.281Z,7.70
2023-04-30T05:06:51.250Z,7.50
2023-04-30T05:07:51.228Z,7.70
2023-04-30T05:08:51.203Z,7.20
2023-04-30T05:09:51.175Z,7.30
2023-04-30T05:10:51.144Z,7.60
2023-04-30T05:11:51.116Z,7.40
2023-04-30T05:12:51.092Z,7.50
2023-04-30T05:13:51.166Z,7.50
2023-04-30T05:14:51.041Z,7.20
2023-04-30T05:15:51.063Z,6.60
2023-04-30T05:16:51.003Z,7.10
2023-04-30T05:17:51.022Z,7.10
2023-04-30T05:18:50.936Z,7.40
2023-04-30T05:19:50.900Z,7.60
2023-04-30T05:20:50.882Z,7.50
2023-04-30T05:21:50.851Z,7.40
2023-04-30T05:22:50.821Z,6.90
2023-04-30T05:23:50.849Z,7.80
2023-04-30T05:24:50.770Z,6.70
2023-04-30T05:25:50.742Z,6.90
2023-04-30T05:26:50.714Z,6.80
2023-04-30T05:27:50.688Z,7.10
2023-04-30T05:28:50.660Z,7.00
2023-04-30T05:29:50.639Z,7.10
2023-04-30T05:30:50.626Z,7.20
2023-04-30T05:31:50.653Z,6.50
2023-04-30T05:32:50.626Z,7.50
2023-04-30T05:33:50.529Z,6.80
2023-04-30T05:34:50.496Z,6.20
2023-04-30T05:35:50.498Z,6.70
2023-04-30T05:36:50.564Z,7.20
2023-04-30T05:37:50.421Z,6.90
2023-04-30T05:38:50.393Z,6.80
2023-04-30T05:39:50.367Z,7.10
2023-04-30T05:40:50.340Z,6.70
2023-04-30T05:41:51.676Z,6.40
2023-04-30T05:42:50.284Z,7.00
2023-04-30T05:43:50.259Z,6.60
2023-04-30T05:44:50.234Z,6.70
2023-04-30T05:45:50.255Z,6.60
2023-04-30T05:46:50.185Z,7.00
2023-04-30T05:47:50.223Z,6.30
2023-04-30T05:48:50.133Z,6.70
2023-04-30T05:49:50.098Z,6.60
2023-04-30T05:50:50.072Z,6.90
2023-04-30T05:51:50.048Z,6.70
2023-04-30T05:52:50.020Z,6.80
2023-04-30T05:53:49.994Z,6.50
2023-04-30T05:54:50.262Z,6.80
2023-04-30T05:55:49.941Z,6.50
2023-04-30T05:56:49.916Z,6.70
2023-04-30T05:57:49.889Z,6.50
2023-04-30T05:58:49.859Z,6.30
2023-04-30T05:59:49.836Z,6.50
2023-04-30T06:00:49.806Z,6.90
2023-04-30T06:01:49.813Z,6.60
2023-04-30T06:02:49.774Z,6.60
2023-04-30T06:03:49.756Z,6.50
2023-04-30T06:04:49.748Z,6.30
2023-04-30T06:05:49.768Z,7.10
2023-04-30T06:06:49.704Z,6.50
2023-04-30T06:07:49.652Z,6.80
2023-04-30T06:08:49.601Z,6.90
2023-04-30T06:09:49.573Z,6.60
2023-04-30T06:10:49.546Z,6.50
2023-04-30T06:11:49.524Z,6.30
2023-04-30T06:12:49.492Z,6.70
2023-04-30T06:13:49.477Z,6.90
2023-04-30T06:14:49.439Z,6.90
2023-04-30T06:15:49.421Z,6.90
2023-04-30T06:16:49.423Z,7.20
2023-04-30T06:17:49.397Z,6.70
2023-04-30T06:18:50.758Z,6.60
2023-04-30T06:19:49.337Z,6.90
2023-04-30T06:20:49.282Z,6.70
2023-04-30T06:21:49.257Z,6.80
2023-04-30T06:22:49.235Z,6.50
2023-04-30T06:23:49.204Z,6.30
2023-04-30T06:24:49.185Z,6.30
2023-04-30T06:25:49.152Z,6.50
2023-04-30T06:26:49.136Z,6.60
2023-04-30T06:27:49.098Z,7.10
2023-04-30T06:28:49.070Z,6.40
2023-04-30T06:29:49.047Z,6.20
2023-04-30T06:30:49.018Z,6.60
2023-04-30T06:31:49.061Z,6.00
2023-04-30T06:32:48.983Z,7.00
2023-04-30T06:33:48.941Z,7.10
2023-04-30T06:34:48.913Z,6.10
2023-04-30T06:35:48.911Z,6.20
2023-04-30T06:36:48.867Z,6.60
2023-04-30T06:37:48.836Z,6.10
2023-04-30T06:38:48.810Z,6.10
2023-04-30T06:39:48.783Z,6.20
2023-04-30T06:40:48.771Z,6.40
2023-04-30T06:41:48.730Z,6.70
2023-04-30T06:42:48.724Z,6.50
2023-04-30T06:43:48.680Z,7.00
2023-04-30T06:44:48.655Z,7.00
2023-04-30T06:45:48.718Z,6.70
2023-04-30T06:46:48.604Z,6.50
2023-04-30T06:47:48.622Z,7.00
2023-04-30T06:48:48.546Z,7.20
2023-04-30T06:49:48.528Z,7.10
2023-04-30T06:50:48.496Z,6.30
2023-04-30T06:51:48.486Z,6.70
2023-04-30T06:52:48.449Z,7.00
2023-04-30T06:53:48.416Z,7.20
2023-04-30T06:54:48.384Z,6.90
2023-04-30T06:55:48.363Z,6.30
2023-04-30T06:56:48.334Z,6.30
2023-04-30T06:57:48.324Z,6.00
2023-04-30T06:58:48.286Z,6.60
2023-04-30T06:59:48.266Z,6.60
2023-04-30T07:00:48.231Z,6.30
2023-04-30T07:01:48.298Z,6.60
2023-04-30T07:02:48.312Z,6.50
2023-04-30T07:03:48.262Z,6.60
2023-04-30T07:04:48.123Z,6.90
2023-04-30T07:05:48.095Z,7.00
2023-04-30T07:06:48.070Z,6.60
2023-04-30T07:07:48.062Z,6.80
2023-04-30T07:08:48.022Z,6.80
2023-04-30T07:09:49.585Z,6.60
2023-04-30T07:10:47.965Z,7.00
2023-04-30T07:11:47.951Z,6.90
2023-04-30T07:12:47.912Z,7.20
2023-04-30T07:13:47.902Z,7.20
2023-04-30T07:14:47.858Z,7.00
2023-04-30T07:15:47.907Z,7.10
2023-04-30T07:16:47.808Z,6.80
2023-04-30T07:17:47.851Z,6.70
2023-04-30T07:18:47.751Z,6.80
2023-04-30T07:19:47.729Z,7.50
2023-04-30T07:20:47.708Z,6.80
2023-04-30T07:21:47.684Z,7.20
2023-04-30T07:22:47.667Z,6.60
2023-04-30T07:23:47.644Z,6.60
2023-04-30T07:24:47.597Z,6.10
2023-04-30T07:25:47.573Z,6.80
2023-04-30T07:26:47.557Z,6.30
2023-04-30T07:27:47.522Z,6.10
2023-04-30T07:28:47.500Z,6.50
2023-04-30T07:29:47.490Z,6.60
2023-04-30T07:30:47.446Z,6.70
2023-04-30T07:31:47.447Z,6.10
2023-04-30T07:32:47.407Z,6.60
2023-04-30T07:33:47.369Z,6.50
2023-04-30T07:34:47.339Z,6.50
2023-04-30T07:35:47.323Z,6.70
2023-04-30T07:36:47.296Z,6.60
2023-04-30T07:37:47.267Z,6.70
2023-04-30T07:38:47.237Z,6.80
2023-04-30T07:39:47.235Z,6.60
2023-04-30T07:40:47.189Z,7.00
2023-04-30T07:41:47.171Z,7.10
2023-04-30T07:42:47.139Z,6.30
2023-04-30T07:43:47.112Z,7.30
2023-04-30T07:44:47.084Z,6.50
2023-04-30T07:45:47.091Z,6.40
2023-04-30T07:46:47.037Z,6.70
2023-04-30T07:47:47.030Z,6.50
2023-04-30T07:48:46.985Z,6.90
2023-04-30T07:49:46.959Z,6.40
2023-04-30T07:50:46.933Z,6.10
2023-04-30T07:51:46.910Z,6.00
2023-04-30T07:52:46.883Z,6.30
2023-04-30T07:53:46.863Z,5.90
2023-04-30T07:54:46.837Z,6.20
2023-04-30T07:55:46.836Z,6.00
2023-04-30T07:56:46.780Z,6.10
2023-04-30T07:57:46.760Z,6.50
2023-04-30T07:58:46.737Z,6.40
2023-04-30T07:59:46.834Z,6.30
2023-04-30T08:00:46.680Z,6.30
2023-04-30T08:01:46.677Z,7.10
2023-04-30T08:02:46.750Z,6.50
2023-04-30T08:03:46.863Z,6.80
2023-04-30T08:04:46.592Z,6.40
2023-04-30T08:05:46.559Z,5.90
2023-04-30T08:06:46.551Z,6.70
2023-04-30T08:07:46.519Z,6.00
2023-04-30T08:08:47.080Z,6.20
2023-04-30T08:09:46.459Z,6.60
2023-04-30T08:10:46.430Z,5.90
2023-04-30T08:11:46.430Z,6.70
2023-04-30T08:12:46.379Z,6.10
2023-04-30T08:13:46.358Z,6.00
2023-04-30T08:14:46.338Z,5.80
2023-04-30T08:15:46.312Z,5.80
2023-04-30T08:16:46.339Z,6.60
2023-04-30T08:17:46.315Z,6.00
2023-04-30T08:18:46.231Z,6.00
2023-04-30T08:19:46.215Z,6.50
2023-04-30T08:20:46.186Z,6.30
2023-04-30T08:21:46.163Z,5.40
2023-04-30T08:22:46.134Z,6.30
2023-04-30T08:23:46.124Z,6.20
2023-04-30T08:24:46.106Z,6.40
2023-04-30T08:25:46.058Z,6.00
2023-04-30T08:26:46.050Z,6.30
2023-04-30T08:27:46.036Z,6.30
2023-04-30T08:28:45.984Z,6.30
2023-04-30T08:29:45.964Z,5.90
2023-04-30T08:30:45.934Z,6.40
2023-04-30T08:31:45.950Z,6.70
2023-04-30T08:32:45.967Z,5.80
2023-04-30T08:33:45.863Z,6.20
2023-04-30T08:34:45.839Z,6.00
2023-04-30T08:35:45.816Z,5.90
2023-04-30T08:36:45.819Z,6.40
2023-04-30T08:37:45.760Z,6.20
2023-04-30T08:38:45.735Z,5.80
2023-04-30T08:39:45.711Z,5.90
2023-04-30T08:40:51.715Z,6.50
2023-04-30T08:41:45.662Z,6.00
2023-04-30T08:42:45.638Z,6.40
2023-04-30T08:43:45.738Z,5.60
2023-04-30T08:44:45.591Z,5.70
2023-04-30T08:45:45.586Z,6.00
2023-04-30T08:46:45.539Z,5.70
2023-04-30T08:47:45.566Z,6.10
2023-04-30T08:48:45.514Z,6.50
2023-04-30T08:49:45.466Z,6.20
2023-04-30T08:50:45.442Z,5.90
2023-04-30T08:51:45.414Z,6.10
2023-04-30T08:52:45.395Z,6.20
2023-04-30T08:53:45.375Z,5.90
2023-04-30T08:54:45.348Z,6.50
2023-04-30T08:55:45.321Z,5.70
2023-04-30T08:56:45.297Z,6.70
2023-04-30T08:57:45.270Z,6.20
2023-04-30T08:58:45.246Z,6.00
2023-04-30T08:59:45.248Z,5.50
2023-04-30T09:00:45.198Z,6.40
2023-04-30T09:01:45.193Z,6.10
2023-04-30T09:02:45.220Z,6.70
2023-04-30T09:03:45.193Z,6.00
2023-04-30T09:04:45.102Z,6.40
2023-04-30T09:05:45.075Z,6.20
2023-04-30T09:06:45.131Z,5.90
2023-04-30T09:08:01.021Z,6.50
2023-04-30T09:08:45.001Z,5.90
2023-04-30T09:09:44.978Z,6.30
2023-04-30T09:10:44.958Z,6.20
2023-04-30T09:11:44.929Z,6.30
2023-04-30T09:12:44.907Z,6.10
2023-04-30T09:13:44.906Z,5.80
2023-04-30T09:14:44.856Z,5.40
2023-04-30T09:15:44.865Z,5.90
2023-04-30T09:16:44.812Z,5.30
2023-04-30T09:17:46.538Z,6.60
2023-04-30T09:18:44.758Z,5.90
2023-04-30T09:19:44.734Z,5.90
2023-04-30T09:20:44.710Z,6.10
2023-04-30T09:21:44.685Z,6.40
2023-04-30T09:22:44.664Z,6.30
2023-04-30T09:23:44.634Z,6.10
2023-04-30T09:24:44.612Z,6.00
2023-04-30T09:25:44.587Z,6.10
2023-04-30T09:26:44.563Z,5.90
2023-04-30T09:27:44.537Z,6.10
2023-04-30T09:28:44.516Z,6.30
2023-04-30T09:29:44.488Z,6.10
2023-04-30T09:30:44.462Z,6.00
2023-04-30T09:31:44.490Z,6.10
2023-04-30T09:32:44.458Z,6.10
2023-04-30T09:33:44.393Z,5.90
2023-04-30T09:34:44.392Z,5.80
2023-04-30T09:35:44.343Z,6.30
2023-04-30T09:36:44.320Z,5.80
2023-04-30T09:37:44.303Z,5.30
2023-04-30T09:38:44.273Z,5.60
2023-04-30T09:39:44.243Z,5.90
2023-04-30T09:40:44.224Z,5.70
2023-04-30T09:41:44.197Z,5.80
2023-04-30T09:42:44.174Z,5.80
2023-04-30T09:43:44.147Z,5.30
2023-04-30T09:44:44.128Z,5.80
2023-04-30T09:45:44.127Z,5.60
2023-04-30T09:46:44.120Z,5.70
2023-04-30T09:47:44.092Z,5.80
2023-04-30T09:48:44.033Z,5.40
2023-04-30T09:49:44.030Z,5.60
2023-04-30T09:50:43.996Z,5.80
2023-04-30T09:51:43.961Z,6.30
2023-04-30T09:52:43.936Z,6.20
2023-04-30T09:53:43.931Z,5.90
2023-04-30T09:54:43.918Z,6.10
2023-04-30T09:55:43.895Z,5.70
2023-04-30T09:56:43.846Z,5.70
2023-04-30T09:57:43.843Z,5.40
2023-04-30T09:58:43.798Z,5.90
2023-04-30T09:59:43.772Z,6.00
2023-04-30T10:00:43.767Z,5.70
2023-04-30T10:01:43.727Z,5.90
2023-04-30T10:02:43.776Z,5.00
2023-04-30T10:03:43.744Z,5.50
2023-04-30T10:04:43.667Z,5.50
2023-04-30T10:05:43.633Z,5.40
2023-04-30T10:06:43.643Z,5.10
2023-04-30T10:07:43.588Z,5.30
2023-04-30T10:08:43.602Z,5.60
2023-04-30T10:09:43.535Z,5.50
2023-04-30T10:10:43.522Z,5.20
2023-04-30T10:11:43.492Z,5.60
2023-04-30T10:12:43.475Z,5.00
2023-04-30T10:13:43.454Z,5.50
2023-04-30T10:14:43.423Z,5.20
2023-04-30T10:15:43.414Z,4.90
2023-04-30T10:16:43.430Z,5.30
2023-04-30T10:17:43.359Z,5.30
2023-04-30T10:18:43.351Z,5.10
2023-04-30T10:19:44.351Z,5.30
2023-04-30T10:20:43.285Z,4.90
2023-04-30T10:21:43.276Z,5.00
2023-04-30T10:22:43.235Z,5.10
2023-04-30T10:23:43.215Z,4.30
2023-04-30T10:24:43.197Z,4.70
2023-04-30T10:25:43.181Z,4.60
2023-04-30T10:26:43.146Z,4.60
2023-04-30T10:27:43.126Z,4.90
2023-04-30T10:28:43.121Z,4.60
2023-04-30T10:29:43.076Z,4.20
2023-04-30T10:30:43.051Z,3.80
2023-04-30T10:31:43.081Z,3.70
2023-04-30T10:32:43.102Z,3.50
2023-04-30T10:33:42.982Z,3.90
2023-04-30T10:34:42.963Z,3.60
2023-04-30T10:35:42.960Z,3.80
2023-04-30T10:36:42.917Z,3.60
2023-04-30T10:37:42.889Z,3.70
2023-04-30T10:38:42.868Z,3.80
2023-04-30T10:39:42.846Z,3.70
2023-04-30T10:40:42.825Z,3.90
2023-04-30T10:41:42.803Z,3.80
2023-04-30T10:42:42.785Z,3.50
2023-04-30T10:43:42.759Z,3.70
2023-04-30T10:44:42.737Z,3.70
2023-04-30T10:45:42.728Z,3.20
2023-04-30T10:46:43.014Z,3.80
2023-04-30T10:47:42.744Z,3.90
2023-04-30T10:48:42.642Z,3.40
2023-04-30T10:49:42.621Z,3.40
2023-04-30T10:50:45.533Z,3.60
2023-04-30T10:51:42.593Z,3.90
2023-04-30T10:52:42.552Z,3.50
2023-04-30T10:53:42.528Z,3.20
2023-04-30T10:54:42.508Z,3.00
2023-04-30T10:55:42.484Z,3.00
2023-04-30T10:56:42.462Z,3.20
2023-04-30T10:57:42.492Z,3.50
2023-04-30T10:58:42.417Z,3.20
2023-04-30T10:59:42.394Z,3.30
2023-04-30T11:00:43.203Z,3.30
2023-04-30T11:01:42.424Z,3.20
2023-04-30T11:02:42.375Z,3.50
2023-04-30T11:03:42.324Z,2.90
2023-04-30T11:04:42.328Z,3.10
2023-04-30T11:05:42.265Z,3.00
2023-04-30T11:06:44.476Z,3.30
2023-04-30T11:07:42.231Z,2.70
2023-04-30T11:08:42.194Z,2.90
2023-04-30T11:09:42.186Z,3.40
2023-04-30T11:10:42.149Z,3.30
2023-04-30T11:11:42.124Z,3.00
2023-04-30T11:12:42.100Z,3.20
2023-04-30T11:13:42.096Z,2.80
2023-04-30T11:14:42.066Z,3.00
2023-04-30T11:15:42.067Z,3.00
2023-04-30T11:16:42.064Z,3.00
2023-04-30T11:17:42.007Z,3.00
2023-04-30T11:18:41.967Z,3.00
2023-04-30T11:19:41.948Z,3.20
2023-04-30T11:20:41.922Z,3.00
2023-04-30T11:21:41.908Z,3.30
2023-04-30T11:22:41.885Z,2.90
2023-04-30T11:23:42.353Z,2.90
2023-04-30T11:24:41.835Z,2.90
2023-04-30T11:25:41.813Z,3.00
2023-04-30T11:26:41.791Z,2.90
2023-04-30T11:27:41.764Z,3.00
2023-04-30T11:28:41.749Z,2.80
2023-04-30T11:29:41.724Z,2.80
2023-04-30T11:30:41.702Z,3.00
2023-04-30T11:31:41.705Z,3.10
2023-04-30T11:32:41.740Z,3.00
2023-04-30T11:33:41.645Z,3.00
2023-04-30T11:34:41.629Z,3.00
2023-04-30T11:35:41.595Z,3.20
2023-04-30T11:36:41.572Z,3.00
2023-04-30T11:37:41.561Z,2.90
2023-04-30T11:38:41.548Z,3.20
2023-04-30T11:39:41.552Z,3.20
2023-04-30T11:40:41.484Z,3.10
2023-04-30T11:41:41.473Z,2.80
2023-04-30T11:42:42.871Z,3.10
2023-04-30T11:43:41.419Z,2.90
2023-04-30T11:44:41.400Z,2.60
2023-04-30T11:45:41.381Z,3.30
2023-04-30T11:46:41.389Z,3.10
2023-04-30T11:47:41.459Z,2.90
2023-04-30T11:48:41.313Z,2.90
2023-04-30T11:49:41.288Z,3.10
2023-04-30T11:50:41.267Z,3.00
2023-04-30T11:51:41.251Z,3.10
2023-04-30T11:52:41.228Z,3.00
2023-04-30T11:53:41.214Z,3.10
2023-04-30T11:54:41.237Z,3.00
2023-04-30T11:55:41.200Z,2.80
2023-04-30T11:56:41.608Z,3.30
2023-04-30T11:57:41.165Z,2.90
2023-04-30T11:58:41.215Z,3.30
2023-04-30T11:59:41.077Z,2.80
2023-04-30T12:00:41.066Z,2.90
2023-04-30T12:01:41.169Z,2.70
2023-04-30T12:02:41.129Z,2.70
2023-04-30T12:03:41.145Z,3.00
2023-04-30T12:04:40.966Z,2.60
2023-04-30T12:05:40.941Z,2.50
2023-04-30T12:06:41.017Z,2.40
2023-04-30T12:07:40.896Z,2.40
2023-04-30T12:08:40.871Z,2.70
2023-04-30T12:09:40.855Z,2.90
2023-04-30T12:10:40.835Z,2.80
2023-04-30T12:11:40.824Z,2.70
2023-04-30T12:12:40.786Z,2.60
2023-04-30T12:13:40.766Z,2.70
2023-04-30T12:14:40.742Z,2.60
2023-04-30T12:15:40.719Z,2.60
2023-04-30T12:16:40.779Z,2.70
2023-04-30T12:17:40.737Z,2.60
2023-04-30T12:18:40.653Z,2.80
2023-04-30T12:19:40.644Z,3.10
2023-04-30T12:20:40.612Z,3.00
2023-04-30T12:21:40.584Z,2.80
2023-04-30T12:22:40.566Z,2.80
2023-04-30T12:23:40.542Z,2.70
2023-04-30T12:24:40.523Z,2.50
2023-04-30T12:25:40.514Z,2.70
2023-04-30T12:26:40.478Z,2.60
2023-04-30T12:27:40.477Z,2.70
2023-04-30T12:28:40.440Z,2.70
2023-04-30T12:29:40.413Z,2.70
2023-04-30T12:30:40.390Z,2.50
2023-04-30T12:31:40.396Z,2.80
2023-04-30T12:32:40.357Z,2.50
2023-04-30T12:33:40.329Z,2.50
2023-04-30T12:34:40.301Z,2.50
2023-04-30T12:35:40.281Z,2.70
2023-04-30T12:36:40.272Z,2.80
2023-04-30T12:37:40.239Z,2.80
2023-04-30T12:38:40.218Z,3.00
2023-04-30T12:39:40.192Z,2.70
2023-04-30T12:40:40.171Z,2.40
2023-04-30T12:41:40.148Z,2.30
2023-04-30T12:42:40.129Z,2.70
2023-04-30T12:43:40.123Z,2.60
2023-04-30T12:44:40.083Z,2.50
2023-04-30T12:45:40.114Z,2.50
2023-04-30T12:46:40.154Z,2.60
2023-04-30T12:47:40.030Z,2.80
2023-04-30T12:48:39.995Z,2.60
2023-04-30T12:49:39.972Z,3.10
2023-04-30T12:50:39.956Z,2.70
2023-04-30T12:51:39.925Z,2.60
2023-04-30T12:52:39.920Z,2.80
2023-04-30T12:53:39.891Z,2.80
2023-04-30T12:54:39.868Z,2.70
2023-04-30T12:55:39.841Z,2.80
2023-04-30T12:56:39.819Z,2.60
2023-04-30T12:57:39.793Z,2.80
2023-04-30T12:58:39.777Z,2.40
2023-04-30T12:59:39.865Z,2.60
2023-04-30T13:00:39.726Z,2.40
2023-04-30T13:01:39.760Z,2.60
2023-04-30T13:02:39.756Z,2.60
2023-04-30T13:03:39.814Z,2.80
2023-04-30T13:04:39.638Z,2.40
2023-04-30T13:05:39.613Z,2.70
2023-04-30T13:06:39.608Z,3.30
2023-04-30T13:07:39.584Z,3.00
2023-04-30T13:08:50.307Z,2.90
2023-04-30T13:09:39.521Z,2.60
2023-04-30T13:10:39.499Z,2.70
2023-04-30T13:11:39.476Z,2.60
2023-04-30T13:12:39.455Z,2.80
2023-04-30T13:13:39.434Z,2.60
2023-04-30T13:14:39.408Z,2.60
2023-04-30T13:15:39.422Z,2.40
2023-04-30T13:16:40.328Z,2.80
2023-04-30T13:17:39.374Z,2.80
2023-04-30T13:18:39.326Z,2.90